Airfield :







YOU CAN JOIN US ON...

 
LOGIN :

Register | Disclaimer

   EN    FR    IT 

 









Legend :    VFR   Marginal VFR   IFR   Intensive IFR   Very Intensive IFR
Visi :
Ceiling :
>= 8 km
>= 3000ft
5 to 8 km
1000 to 3000 ft
1500m to 5 km
500 to 1000 ft
800 to 1500m
200 to 500 ft
< 800m
< 200 ft
Symbols :   Thunderstorms  Fog  Heavy snow  Heavy precipitations  Wind > 20 kt






- Airport Elevation : 95 ft
- IATA code : GEO


SYCJ - Cheddi Jagan Int.

CURRENT METAR :
  • 051600Z 06010KT 030V100 9999 BKN018 31/24 Q1012 NOSIG

EXPIRED METARs :
  • 051500Z 09008KT 050V130 9999 BKN018 SCT100 30/24 Q1013 NOSIG
  • 051400Z 10008KT 060V130 9999 SCT018 BKN100 29/25 Q1014 NOSIG

TAF TAF SYCJ
Valid from the 05 at 12:00 until the 06 at 12:00 UTC


051100Z 0512/0612 05012KT 9999 FEW018 BKN100
BECMG 0600/0603 06004KT 9999 SCT017 SCT100



MET'MAP, your aeronautical weather chart ! - Copyright ORBIFLY December 2007 - Disclaimer

ORBIFLY MET'MAP TEAM :

Programming & Development : Alexandra Zaïnal
Concept & original design : Baudouin d'Aumeries
Assistance for programming : Marc-Olivier Méhu
Technical & hardware support : Manuel Goepfert

Contact : metmap@orbifly.com




SOURCES & CREDITS :

   NOAA